Terminal Aerodrome Forecast
Issued by NWS

Home | Current Version | Previous Version | Text Only | Print | Product List | Glossary On
Versions: 1 2 3 4 5 6 7 8 9 10 11 12 13 14 15 16 17 18 19 20
000
FTUS45 KABQ 221100
TAFROW
TAF
KROW 221135Z 2212/2312 06005KT P6SM VCSH FEW040 BKN060
      TEMPO 2214/2217 09010KT 4SM -RA BR SCT007 OVC025
     FM222000 18010G20KT P6SM VCSH FEW025 OVC040
     FM222200 18010G20KT P6SM VCTS FEW025 BKN040CB
     FM230000 15010KT P6SM VCSH SCT025 OVC040
     FM230900 24005KT P6SM BKN080=

USA.gov is the U.S. government's official web portal to all federal, state and local government web resources and services.